sensor_id;sensor_type;location;lat;lon;timestamp;temperature;humidity
30534;DHT22;73248;52.398;9.814;2024-03-06T00:00:46;5.90;99.90
30534;DHT22;73248;52.398;9.814;2024-03-06T00:03:11;5.90;99.90
30534;DHT22;73248;52.398;9.814;2024-03-06T00:05:37;5.90;99.90
30534;DHT22;73248;52.398;9.814;2024-03-06T00:08:03;5.90;99.90
30534;DHT22;73248;52.398;9.814;2024-03-06T00:10:29;5.90;99.90
30534;DHT22;73248;52.398;9.814;2024-03-06T00:12:55;5.90;99.90
30534;DHT22;73248;52.398;9.814;2024-03-06T00:15:20;5.90;99.90
30534;DHT22;73248;52.398;9.814;2024-03-06T00:17:46;5.90;99.90
30534;DHT22;73248;52.398;9.814;2024-03-06T00:20:12;5.90;99.90
30534;DHT22;73248;52.398;9.814;2024-03-06T00:22:38;5.90;99.90
30534;DHT22;73248;52.398;9.814;2024-03-06T00:25:04;5.90;99.90
30534;DHT22;73248;52.398;9.814;2024-03-06T00:27:30;5.90;99.90
30534;DHT22;73248;52.398;9.814;2024-03-06T00:29:55;5.80;99.90
30534;DHT22;73248;52.398;9.814;2024-03-06T00:32:21;5.80;99.90
30534;DHT22;73248;52.398;9.814;2024-03-06T00:34:48;5.80;99.90
30534;DHT22;73248;52.398;9.814;2024-03-06T00:37:14;5.90;99.90
30534;DHT22;73248;52.398;9.814;2024-03-06T00:39:40;5.90;99.90
30534;DHT22;73248;52.398;9.814;2024-03-06T00:42:05;5.90;99.90
30534;DHT22;73248;52.398;9.814;2024-03-06T00:44:31;5.90;99.90
30534;DHT22;73248;52.398;9.814;2024-03-06T00:46:57;5.90;99.90
30534;DHT22;73248;52.398;9.814;2024-03-06T00:49:22;5.90;99.90
30534;DHT22;73248;52.398;9.814;2024-03-06T00:51:48;5.90;99.90
30534;DHT22;73248;52.398;9.814;2024-03-06T00:54:13;5.90;99.90
30534;DHT22;73248;52.398;9.814;2024-03-06T00:56:39;5.90;99.90
30534;DHT22;73248;52.398;9.814;2024-03-06T00:59:05;5.90;99.90
30534;DHT22;73248;52.398;9.814;2024-03-06T01:01:30;5.90;99.90
30534;DHT22;73248;52.398;9.814;2024-03-06T01:03:56;5.90;99.90
30534;DHT22;73248;52.398;9.814;2024-03-06T01:06:22;5.90;99.90
30534;DHT22;73248;52.398;9.814;2024-03-06T01:08:47;5.90;99.90
30534;DHT22;73248;52.398;9.814;2024-03-06T01:11:13;5.90;99.90
30534;DHT22;73248;52.398;9.814;2024-03-06T01:13:41;5.90;99.90
30534;DHT22;73248;52.398;9.814;2024-03-06T01:16:07;5.90;99.90
30534;DHT22;73248;52.398;9.814;2024-03-06T01:18:33;5.90;99.90
30534;DHT22;73248;52.398;9.814;2024-03-06T01:20:59;5.90;99.90
30534;DHT22;73248;52.398;9.814;2024-03-06T01:23:24;5.90;99.90
30534;DHT22;73248;52.398;9.814;2024-03-06T01:25:50;5.90;99.90
30534;DHT22;73248;52.398;9.814;2024-03-06T01:28:15;5.90;99.90
30534;DHT22;73248;52.398;9.814;2024-03-06T01:30:41;5.90;99.90
30534;DHT22;73248;52.398;9.814;2024-03-06T01:33:07;5.90;99.90
30534;DHT22;73248;52.398;9.814;2024-03-06T01:35:32;5.90;99.90
30534;DHT22;73248;52.398;9.814;2024-03-06T01:37:58;5.90;99.90
30534;DHT22;73248;52.398;9.814;2024-03-06T01:40:23;5.90;99.90
30534;DHT22;73248;52.398;9.814;2024-03-06T01:42:49;6.00;99.90
30534;DHT22;73248;52.398;9.814;2024-03-06T01:45:15;6.00;99.90
30534;DHT22;73248;52.398;9.814;2024-03-06T01:47:40;5.90;99.90
30534;DHT22;73248;52.398;9.814;2024-03-06T01:50:07;5.90;99.90
30534;DHT22;73248;52.398;9.814;2024-03-06T01:52:36;5.90;99.90
30534;DHT22;73248;52.398;9.814;2024-03-06T01:55:03;5.90;99.90
30534;DHT22;73248;52.398;9.814;2024-03-06T01:57:30;5.90;99.90
30534;DHT22;73248;52.398;9.814;2024-03-06T01:59:56;5.90;99.90
30534;DHT22;73248;52.398;9.814;2024-03-06T02:02:22;5.90;99.90
30534;DHT22;73248;52.398;9.814;2024-03-06T02:04:48;5.90;99.90
30534;DHT22;73248;52.398;9.814;2024-03-06T02:07:14;5.90;99.90
30534;DHT22;73248;52.398;9.814;2024-03-06T02:09:41;5.90;99.90
30534;DHT22;73248;52.398;9.814;2024-03-06T02:12:08;5.90;99.90
30534;DHT22;73248;52.398;9.814;2024-03-06T02:14:34;5.90;99.90
30534;DHT22;73248;52.398;9.814;2024-03-06T02:17:00;5.90;99.90
30534;DHT22;73248;52.398;9.814;2024-03-06T02:19:41;5.90;99.90
30534;DHT22;73248;52.398;9.814;2024-03-06T02:22:07;5.90;99.90
30534;DHT22;73248;52.398;9.814;2024-03-06T02:24:34;5.90;99.90
30534;DHT22;73248;52.398;9.814;2024-03-06T02:26:59;5.90;99.90
30534;DHT22;73248;52.398;9.814;2024-03-06T02:29:25;5.80;99.90
30534;DHT22;73248;52.398;9.814;2024-03-06T02:31:51;5.90;99.90
30534;DHT22;73248;52.398;9.814;2024-03-06T02:34:16;5.80;99.90
30534;DHT22;73248;52.398;9.814;2024-03-06T02:36:42;5.80;99.90
30534;DHT22;73248;52.398;9.814;2024-03-06T02:39:07;5.90;99.90
30534;DHT22;73248;52.398;9.814;2024-03-06T02:41:38;5.80;99.90
30534;DHT22;73248;52.398;9.814;2024-03-06T02:44:03;5.80;99.90
30534;DHT22;73248;52.398;9.814;2024-03-06T02:46:29;5.80;99.90
30534;DHT22;73248;52.398;9.814;2024-03-06T02:48:55;5.80;99.90
30534;DHT22;73248;52.398;9.814;2024-03-06T02:51:21;5.80;99.90
30534;DHT22;73248;52.398;9.814;2024-03-06T02:53:47;5.80;99.90
30534;DHT22;73248;52.398;9.814;2024-03-06T02:56:18;5.80;99.90
30534;DHT22;73248;52.398;9.814;2024-03-06T02:58:44;5.80;99.90
30534;DHT22;73248;52.398;9.814;2024-03-06T03:01:10;5.80;99.90
30534;DHT22;73248;52.398;9.814;2024-03-06T03:03:35;5.80;99.90
30534;DHT22;73248;52.398;9.814;2024-03-06T03:06:01;5.80;99.90
30534;DHT22;73248;52.398;9.814;2024-03-06T03:08:27;5.80;99.90
30534;DHT22;73248;52.398;9.814;2024-03-06T03:10:52;5.80;99.90
30534;DHT22;73248;52.398;9.814;2024-03-06T03:13:18;5.80;99.90
30534;DHT22;73248;52.398;9.814;2024-03-06T03:15:43;5.80;99.90
30534;DHT22;73248;52.398;9.814;2024-03-06T03:18:09;5.80;99.90
30534;DHT22;73248;52.398;9.814;2024-03-06T03:20:35;5.80;99.90
30534;DHT22;73248;52.398;9.814;2024-03-06T03:23:01;5.80;99.90
30534;DHT22;73248;52.398;9.814;2024-03-06T03:25:27;5.80;99.90
30534;DHT22;73248;52.398;9.814;2024-03-06T03:27:53;5.80;99.90
30534;DHT22;73248;52.398;9.814;2024-03-06T03:30:18;5.80;99.90
30534;DHT22;73248;52.398;9.814;2024-03-06T03:32:50;5.70;99.90
30534;DHT22;73248;52.398;9.814;2024-03-06T03:35:16;5.70;99.90
30534;DHT22;73248;52.398;9.814;2024-03-06T03:37:43;5.70;99.90
30534;DHT22;73248;52.398;9.814;2024-03-06T03:40:09;5.80;99.90
30534;DHT22;73248;52.398;9.814;2024-03-06T03:42:37;5.80;99.90
30534;DHT22;73248;52.398;9.814;2024-03-06T03:45:03;5.70;99.90
30534;DHT22;73248;52.398;9.814;2024-03-06T03:47:30;5.80;99.90
30534;DHT22;73248;52.398;9.814;2024-03-06T03:49:55;5.70;99.90
30534;DHT22;73248;52.398;9.814;2024-03-06T03:52:21;5.70;99.90
30534;DHT22;73248;52.398;9.814;2024-03-06T03:54:47;5.70;99.90
30534;DHT22;73248;52.398;9.814;2024-03-06T03:57:13;5.70;99.90
30534;DHT22;73248;52.398;9.814;2024-03-06T03:59:39;5.70;99.90
30534;DHT22;73248;52.398;9.814;2024-03-06T04:02:06;5.70;99.90
30534;DHT22;73248;52.398;9.814;2024-03-06T04:04:32;5.70;99.90
30534;DHT22;73248;52.398;9.814;2024-03-06T04:06:59;5.70;99.90
30534;DHT22;73248;52.398;9.814;2024-03-06T04:09:29;5.70;99.90
30534;DHT22;73248;52.398;9.814;2024-03-06T04:11:55;5.70;99.90
30534;DHT22;73248;52.398;9.814;2024-03-06T04:14:21;5.70;99.90
30534;DHT22;73248;52.398;9.814;2024-03-06T04:16:47;5.70;99.90
30534;DHT22;73248;52.398;9.814;2024-03-06T04:19:13;5.70;99.90
30534;DHT22;73248;52.398;9.814;2024-03-06T04:21:42;5.70;99.90
30534;DHT22;73248;52.398;9.814;2024-03-06T04:24:08;5.70;99.90
30534;DHT22;73248;52.398;9.814;2024-03-06T04:26:33;5.70;99.90
30534;DHT22;73248;52.398;9.814;2024-03-06T04:28:59;5.70;99.90
30534;DHT22;73248;52.398;9.814;2024-03-06T04:31:24;5.70;99.90
30534;DHT22;73248;52.398;9.814;2024-03-06T04:33:50;5.70;99.90
30534;DHT22;73248;52.398;9.814;2024-03-06T04:36:16;5.70;99.90
30534;DHT22;73248;52.398;9.814;2024-03-06T04:38:42;5.70;99.90
30534;DHT22;73248;52.398;9.814;2024-03-06T04:41:08;5.70;99.90
30534;DHT22;73248;52.398;9.814;2024-03-06T04:43:34;5.70;99.90
30534;DHT22;73248;52.398;9.814;2024-03-06T04:46:00;5.80;99.90
30534;DHT22;73248;52.398;9.814;2024-03-06T04:48:26;5.70;99.90
30534;DHT22;73248;52.398;9.814;2024-03-06T04:50:51;5.70;99.90
30534;DHT22;73248;52.398;9.814;2024-03-06T04:53:18;5.70;99.90
30534;DHT22;73248;52.398;9.814;2024-03-06T04:55:45;5.70;99.90
30534;DHT22;73248;52.398;9.814;2024-03-06T04:58:11;5.60;99.90
30534;DHT22;73248;52.398;9.814;2024-03-06T05:00:37;5.60;99.90
30534;DHT22;73248;52.398;9.814;2024-03-06T05:03:03;5.60;99.90
30534;DHT22;73248;52.398;9.814;2024-03-06T05:05:28;5.70;99.90
30534;DHT22;73248;52.398;9.814;2024-03-06T05:07:55;5.60;99.90
30534;DHT22;73248;52.398;9.814;2024-03-06T05:10:20;5.60;99.90
30534;DHT22;73248;52.398;9.814;2024-03-06T05:12:46;5.60;99.90
30534;DHT22;73248;52.398;9.814;2024-03-06T05:15:12;5.60;99.90
30534;DHT22;73248;52.398;9.814;2024-03-06T05:17:38;5.70;99.90
30534;DHT22;73248;52.398;9.814;2024-03-06T05:20:04;5.60;99.90
30534;DHT22;73248;52.398;9.814;2024-03-06T05:22:30;5.60;99.90
30534;DHT22;73248;52.398;9.814;2024-03-06T05:24:56;5.70;99.90
30534;DHT22;73248;52.398;9.814;2024-03-06T05:27:21;5.60;99.90
30534;DHT22;73248;52.398;9.814;2024-03-06T05:29:47;5.60;99.90
30534;DHT22;73248;52.398;9.814;2024-03-06T05:32:13;5.70;99.90
30534;DHT22;73248;52.398;9.814;2024-03-06T05:34:39;5.70;99.90
30534;DHT22;73248;52.398;9.814;2024-03-06T05:37:04;5.70;99.90
30534;DHT22;73248;52.398;9.814;2024-03-06T05:39:31;5.60;99.90
30534;DHT22;73248;52.398;9.814;2024-03-06T05:42:01;5.60;99.90
30534;DHT22;73248;52.398;9.814;2024-03-06T05:44:30;5.70;99.90
30534;DHT22;73248;52.398;9.814;2024-03-06T05:46:58;5.70;99.90
30534;DHT22;73248;52.398;9.814;2024-03-06T05:49:23;5.70;99.90
30534;DHT22;73248;52.398;9.814;2024-03-06T05:51:49;5.70;99.90
30534;DHT22;73248;52.398;9.814;2024-03-06T05:54:15;5.60;99.90
30534;DHT22;73248;52.398;9.814;2024-03-06T05:56:40;5.60;99.90
30534;DHT22;73248;52.398;9.814;2024-03-06T05:59:07;5.60;99.90
30534;DHT22;73248;52.398;9.814;2024-03-06T06:01:34;5.60;99.90
30534;DHT22;73248;52.398;9.814;2024-03-06T06:04:00;5.60;99.90
30534;DHT22;73248;52.398;9.814;2024-03-06T06:06:26;5.60;99.90
30534;DHT22;73248;52.398;9.814;2024-03-06T06:08:52;5.60;99.90
30534;DHT22;73248;52.398;9.814;2024-03-06T06:11:19;5.60;99.90
30534;DHT22;73248;52.398;9.814;2024-03-06T06:13:45;5.50;99.90
30534;DHT22;73248;52.398;9.814;2024-03-06T06:16:10;5.50;99.90
30534;DHT22;73248;52.398;9.814;2024-03-06T06:18:36;5.60;99.90
30534;DHT22;73248;52.398;9.814;2024-03-06T06:21:02;5.50;99.90
30534;DHT22;73248;52.398;9.814;2024-03-06T06:23:29;5.60;99.90
30534;DHT22;73248;52.398;9.814;2024-03-06T06:25:55;5.50;99.90
30534;DHT22;73248;52.398;9.814;2024-03-06T06:28:21;5.50;99.90
30534;DHT22;73248;52.398;9.814;2024-03-06T06:30:48;5.50;99.90
30534;DHT22;73248;52.398;9.814;2024-03-06T06:33:13;5.50;99.90
30534;DHT22;73248;52.398;9.814;2024-03-06T06:35:39;5.50;99.90
30534;DHT22;73248;52.398;9.814;2024-03-06T06:38:05;5.50;99.90
30534;DHT22;73248;52.398;9.814;2024-03-06T06:40:30;5.50;99.90
30534;DHT22;73248;52.398;9.814;2024-03-06T06:42:57;5.50;99.90
30534;DHT22;73248;52.398;9.814;2024-03-06T06:45:22;5.60;99.90
30534;DHT22;73248;52.398;9.814;2024-03-06T06:47:49;5.50;99.90
30534;DHT22;73248;52.398;9.814;2024-03-06T06:50:15;5.60;99.90
30534;DHT22;73248;52.398;9.814;2024-03-06T06:52:41;5.50;99.90
30534;DHT22;73248;52.398;9.814;2024-03-06T06:55:07;5.60;99.90
30534;DHT22;73248;52.398;9.814;2024-03-06T06:57:35;5.50;99.90
30534;DHT22;73248;52.398;9.814;2024-03-06T07:00:01;5.60;99.90
30534;DHT22;73248;52.398;9.814;2024-03-06T07:02:26;5.60;99.90
30534;DHT22;73248;52.398;9.814;2024-03-06T07:04:53;5.60;99.90
30534;DHT22;73248;52.398;9.814;2024-03-06T07:07:20;5.60;99.90
30534;DHT22;73248;52.398;9.814;2024-03-06T07:09:46;5.60;99.90
30534;DHT22;73248;52.398;9.814;2024-03-06T07:12:12;5.60;99.90
30534;DHT22;73248;52.398;9.814;2024-03-06T07:14:38;5.70;99.90
30534;DHT22;73248;52.398;9.814;2024-03-06T07:17:03;5.70;99.90
30534;DHT22;73248;52.398;9.814;2024-03-06T07:19:29;5.70;99.90
30534;DHT22;73248;52.398;9.814;2024-03-06T07:21:54;5.70;99.90
30534;DHT22;73248;52.398;9.814;2024-03-06T07:24:20;5.70;99.90
30534;DHT22;73248;52.398;9.814;2024-03-06T07:26:45;5.70;99.90
30534;DHT22;73248;52.398;9.814;2024-03-06T07:29:11;5.80;99.90
30534;DHT22;73248;52.398;9.814;2024-03-06T07:31:43;5.70;99.90
30534;DHT22;73248;52.398;9.814;2024-03-06T07:34:09;5.80;99.90
30534;DHT22;73248;52.398;9.814;2024-03-06T07:36:35;5.80;99.90
30534;DHT22;73248;52.398;9.814;2024-03-06T07:39:01;5.70;99.90
30534;DHT22;73248;52.398;9.814;2024-03-06T07:41:28;5.80;99.90
30534;DHT22;73248;52.398;9.814;2024-03-06T07:43:53;5.80;99.90
30534;DHT22;73248;52.398;9.814;2024-03-06T07:46:19;5.80;99.90
30534;DHT22;73248;52.398;9.814;2024-03-06T07:48:44;5.90;99.90
30534;DHT22;73248;52.398;9.814;2024-03-06T07:51:10;5.90;99.90
30534;DHT22;73248;52.398;9.814;2024-03-06T07:53:36;5.90;99.90
30534;DHT22;73248;52.398;9.814;2024-03-06T07:56:03;5.90;99.90
30534;DHT22;73248;52.398;9.814;2024-03-06T07:58:28;6.00;99.90
30534;DHT22;73248;52.398;9.814;2024-03-06T08:00:54;6.00;99.90
30534;DHT22;73248;52.398;9.814;2024-03-06T08:03:22;6.00;99.90
30534;DHT22;73248;52.398;9.814;2024-03-06T08:05:51;6.00;99.90
30534;DHT22;73248;52.398;9.814;2024-03-06T08:08:18;6.00;99.90
30534;DHT22;73248;52.398;9.814;2024-03-06T08:10:44;6.00;99.90
30534;DHT22;73248;52.398;9.814;2024-03-06T08:13:10;6.00;99.90
30534;DHT22;73248;52.398;9.814;2024-03-06T08:15:36;6.10;99.90
30534;DHT22;73248;52.398;9.814;2024-03-06T08:18:02;6.10;99.90
30534;DHT22;73248;52.398;9.814;2024-03-06T08:20:29;6.20;99.90
30534;DHT22;73248;52.398;9.814;2024-03-06T08:22:56;6.10;99.90
30534;DHT22;73248;52.398;9.814;2024-03-06T08:25:21;6.20;99.90
30534;DHT22;73248;52.398;9.814;2024-03-06T08:27:47;6.10;99.90
30534;DHT22;73248;52.398;9.814;2024-03-06T08:30:13;6.10;99.90
30534;DHT22;73248;52.398;9.814;2024-03-06T08:32:38;6.10;99.90
30534;DHT22;73248;52.398;9.814;2024-03-06T08:35:05;6.20;99.90
30534;DHT22;73248;52.398;9.814;2024-03-06T08:37:32;6.20;99.90
30534;DHT22;73248;52.398;9.814;2024-03-06T08:39:59;6.20;99.90
30534;DHT22;73248;52.398;9.814;2024-03-06T08:42:25;6.20;99.90
30534;DHT22;73248;52.398;9.814;2024-03-06T08:44:51;6.30;99.90
30534;DHT22;73248;52.398;9.814;2024-03-06T08:47:17;6.30;99.90
30534;DHT22;73248;52.398;9.814;2024-03-06T08:49:42;6.40;99.90
30534;DHT22;73248;52.398;9.814;2024-03-06T08:52:08;6.40;99.90
30534;DHT22;73248;52.398;9.814;2024-03-06T08:54:35;6.50;99.90
30534;DHT22;73248;52.398;9.814;2024-03-06T08:57:01;6.50;99.90
30534;DHT22;73248;52.398;9.814;2024-03-06T08:59:28;6.50;99.90
30534;DHT22;73248;52.398;9.814;2024-03-06T09:01:54;6.50;99.90
30534;DHT22;73248;52.398;9.814;2024-03-06T09:04:21;6.50;99.90
30534;DHT22;73248;52.398;9.814;2024-03-06T09:06:47;6.50;99.90
30534;DHT22;73248;52.398;9.814;2024-03-06T09:09:14;6.50;99.90
30534;DHT22;73248;52.398;9.814;2024-03-06T09:11:43;6.60;99.90
30534;DHT22;73248;52.398;9.814;2024-03-06T09:14:09;6.60;99.90
30534;DHT22;73248;52.398;9.814;2024-03-06T09:16:35;6.70;99.90
30534;DHT22;73248;52.398;9.814;2024-03-06T09:19:01;6.80;99.90
30534;DHT22;73248;52.398;9.814;2024-03-06T09:21:27;6.80;99.90
30534;DHT22;73248;52.398;9.814;2024-03-06T09:23:53;6.90;99.90
30534;DHT22;73248;52.398;9.814;2024-03-06T09:26:19;7.00;99.90
30534;DHT22;73248;52.398;9.814;2024-03-06T09:28:46;6.90;99.90
30534;DHT22;73248;52.398;9.814;2024-03-06T09:31:11;7.00;99.90
30534;DHT22;73248;52.398;9.814;2024-03-06T09:33:39;7.00;99.90
30534;DHT22;73248;52.398;9.814;2024-03-06T09:36:05;7.00;99.90
30534;DHT22;73248;52.398;9.814;2024-03-06T09:38:31;7.00;99.90
30534;DHT22;73248;52.398;9.814;2024-03-06T09:40:57;7.10;99.90
30534;DHT22;73248;52.398;9.814;2024-03-06T09:43:22;7.10;99.90
30534;DHT22;73248;52.398;9.814;2024-03-06T09:45:50;7.10;99.90
30534;DHT22;73248;52.398;9.814;2024-03-06T09:48:19;7.20;99.90
30534;DHT22;73248;52.398;9.814;2024-03-06T09:50:46;7.30;99.90
30534;DHT22;73248;52.398;9.814;2024-03-06T09:53:16;7.40;99.90
30534;DHT22;73248;52.398;9.814;2024-03-06T09:55:42;7.40;99.90
30534;DHT22;73248;52.398;9.814;2024-03-06T09:58:08;7.50;99.90
30534;DHT22;73248;52.398;9.814;2024-03-06T10:00:37;7.50;99.90
30534;DHT22;73248;52.398;9.814;2024-03-06T10:03:03;7.60;99.90
30534;DHT22;73248;52.398;9.814;2024-03-06T10:05:31;7.50;99.90
30534;DHT22;73248;52.398;9.814;2024-03-06T10:07:59;7.60;99.90
30534;DHT22;73248;52.398;9.814;2024-03-06T10:10:25;7.60;99.90
30534;DHT22;73248;52.398;9.814;2024-03-06T10:12:52;7.70;99.90
30534;DHT22;73248;52.398;9.814;2024-03-06T10:15:18;7.80;99.90
30534;DHT22;73248;52.398;9.814;2024-03-06T10:17:44;7.80;99.90
30534;DHT22;73248;52.398;9.814;2024-03-06T10:20:21;8.00;99.90
30534;DHT22;73248;52.398;9.814;2024-03-06T10:22:52;7.90;99.90
30534;DHT22;73248;52.398;9.814;2024-03-06T10:25:22;8.00;99.90
30534;DHT22;73248;52.398;9.814;2024-03-06T10:28:07;8.10;99.90
30534;DHT22;73248;52.398;9.814;2024-03-06T10:30:34;8.20;99.90
30534;DHT22;73248;52.398;9.814;2024-03-06T10:33:02;8.20;99.90
30534;DHT22;73248;52.398;9.814;2024-03-06T10:35:28;8.30;99.90
30534;DHT22;73248;52.398;9.814;2024-03-06T10:37:54;8.40;99.90
30534;DHT22;73248;52.398;9.814;2024-03-06T10:40:22;8.50;99.90
30534;DHT22;73248;52.398;9.814;2024-03-06T10:42:48;8.50;99.90
30534;DHT22;73248;52.398;9.814;2024-03-06T10:45:14;8.50;99.90
30534;DHT22;73248;52.398;9.814;2024-03-06T10:47:46;8.70;99.90
30534;DHT22;73248;52.398;9.814;2024-03-06T10:50:14;8.70;99.90
30534;DHT22;73248;52.398;9.814;2024-03-06T10:52:41;8.80;99.90
30534;DHT22;73248;52.398;9.814;2024-03-06T10:55:08;8.90;99.90
30534;DHT22;73248;52.398;9.814;2024-03-06T10:57:36;9.10;99.90
30534;DHT22;73248;52.398;9.814;2024-03-06T11:00:03;9.10;99.90
30534;DHT22;73248;52.398;9.814;2024-03-06T11:02:29;9.20;99.90
30534;DHT22;73248;52.398;9.814;2024-03-06T11:04:55;9.30;99.90
30534;DHT22;73248;52.398;9.814;2024-03-06T11:07:21;9.50;99.90
30534;DHT22;73248;52.398;9.814;2024-03-06T11:09:46;9.60;99.90
30534;DHT22;73248;52.398;9.814;2024-03-06T11:12:32;9.80;99.90
30534;DHT22;73248;52.398;9.814;2024-03-06T11:14:58;9.90;99.90
30534;DHT22;73248;52.398;9.814;2024-03-06T11:17:27;10.00;99.40
30534;DHT22;73248;52.398;9.814;2024-03-06T11:28:28;10.20;98.50
30534;DHT22;73248;52.398;9.814;2024-03-06T11:33:19;9.90;98.70
30534;DHT22;73248;52.398;9.814;2024-03-06T11:38:51;9.90;98.70
30534;DHT22;73248;52.398;9.814;2024-03-06T11:41:22;10.00;98.30
30534;DHT22;73248;52.398;9.814;2024-03-06T11:43:48;10.00;98.10
30534;DHT22;73248;52.398;9.814;2024-03-06T11:46:16;9.90;98.30
30534;DHT22;73248;52.398;9.814;2024-03-06T11:48:43;9.90;98.40
30534;DHT22;73248;52.398;9.814;2024-03-06T11:51:09;9.90;98.60
30534;DHT22;73248;52.398;9.814;2024-03-06T11:53:34;9.90;98.30
30534;DHT22;73248;52.398;9.814;2024-03-06T11:56:01;9.90;98.40
30534;DHT22;73248;52.398;9.814;2024-03-06T11:58:27;10.00;97.60
30534;DHT22;73248;52.398;9.814;2024-03-06T12:00:54;9.90;98.10
30534;DHT22;73248;52.398;9.814;2024-03-06T12:03:20;10.00;97.40
30534;DHT22;73248;52.398;9.814;2024-03-06T12:05:50;9.90;97.70
30534;DHT22;73248;52.398;9.814;2024-03-06T12:08:16;10.00;97.50
30534;DHT22;73248;52.398;9.814;2024-03-06T12:10:42;9.90;97.90
30534;DHT22;73248;52.398;9.814;2024-03-06T12:13:07;9.90;98.10
30534;DHT22;73248;52.398;9.814;2024-03-06T12:15:33;9.90;97.90
30534;DHT22;73248;52.398;9.814;2024-03-06T12:18:00;10.00;97.60
30534;DHT22;73248;52.398;9.814;2024-03-06T12:20:26;10.00;97.80
30534;DHT22;73248;52.398;9.814;2024-03-06T12:22:52;10.10;97.90
30534;DHT22;73248;52.398;9.814;2024-03-06T12:25:26;10.20;97.80
30534;DHT22;73248;52.398;9.814;2024-03-06T12:27:53;10.20;97.70
30534;DHT22;73248;52.398;9.814;2024-03-06T12:30:21;10.20;97.90
30534;DHT22;73248;52.398;9.814;2024-03-06T12:32:58;10.20;98.00
30534;DHT22;73248;52.398;9.814;2024-03-06T12:35:27;10.30;98.30
30534;DHT22;73248;52.398;9.814;2024-03-06T12:37:53;10.50;97.80
30534;DHT22;73248;52.398;9.814;2024-03-06T12:40:19;10.60;98.20
30534;DHT22;73248;52.398;9.814;2024-03-06T12:42:45;10.60;97.70
30534;DHT22;73248;52.398;9.814;2024-03-06T12:45:15;10.80;97.80
30534;DHT22;73248;52.398;9.814;2024-03-06T12:47:45;10.90;97.80
30534;DHT22;73248;52.398;9.814;2024-03-06T12:50:11;11.00;97.70
30534;DHT22;73248;52.398;9.814;2024-03-06T12:52:40;11.20;97.40
30534;DHT22;73248;52.398;9.814;2024-03-06T12:55:07;11.30;97.10
30534;DHT22;73248;52.398;9.814;2024-03-06T12:57:34;11.40;97.40
30534;DHT22;73248;52.398;9.814;2024-03-06T13:00:00;11.60;97.30
30534;DHT22;73248;52.398;9.814;2024-03-06T13:02:26;11.60;97.10
30534;DHT22;73248;52.398;9.814;2024-03-06T13:04:52;11.70;96.90
30534;DHT22;73248;52.398;9.814;2024-03-06T13:07:18;11.90;96.80
30534;DHT22;73248;52.398;9.814;2024-03-06T13:09:44;12.20;96.70
30534;DHT22;73248;52.398;9.814;2024-03-06T13:12:10;12.30;96.60
30534;DHT22;73248;52.398;9.814;2024-03-06T13:14:36;12.60;96.80
30534;DHT22;73248;52.398;9.814;2024-03-06T13:17:01;13.00;96.80
30534;DHT22;73248;52.398;9.814;2024-03-06T13:19:28;13.40;96.40
30534;DHT22;73248;52.398;9.814;2024-03-06T13:21:53;13.80;95.50
30534;DHT22;73248;52.398;9.814;2024-03-06T13:24:19;14.00;95.20
30534;DHT22;73248;52.398;9.814;2024-03-06T13:26:46;14.50;95.20
30534;DHT22;73248;52.398;9.814;2024-03-06T13:29:12;14.70;94.40
30534;DHT22;73248;52.398;9.814;2024-03-06T13:31:37;15.20;94.60
30534;DHT22;73248;52.398;9.814;2024-03-06T13:34:03;15.50;93.50
30534;DHT22;73248;52.398;9.814;2024-03-06T13:36:29;15.60;93.30
30534;DHT22;73248;52.398;9.814;2024-03-06T13:38:55;15.50;93.20
30534;DHT22;73248;52.398;9.814;2024-03-06T13:41:21;15.80;93.20
30534;DHT22;73248;52.398;9.814;2024-03-06T13:43:46;16.00;92.50
30534;DHT22;73248;52.398;9.814;2024-03-06T13:46:12;16.10;92.00
30534;DHT22;73248;52.398;9.814;2024-03-06T13:48:38;16.60;91.80
30534;DHT22;73248;52.398;9.814;2024-03-06T13:51:04;16.60;91.80
30534;DHT22;73248;52.398;9.814;2024-03-06T13:53:30;16.60;90.80
30534;DHT22;73248;52.398;9.814;2024-03-06T13:55:56;16.90;90.40
30534;DHT22;73248;52.398;9.814;2024-03-06T13:58:22;17.20;90.20
30534;DHT22;73248;52.398;9.814;2024-03-06T14:00:48;17.00;90.50
30534;DHT22;73248;52.398;9.814;2024-03-06T14:03:14;17.30;90.40
30534;DHT22;73248;52.398;9.814;2024-03-06T14:05:39;17.80;90.50
30534;DHT22;73248;52.398;9.814;2024-03-06T14:08:05;17.90;89.10
30534;DHT22;73248;52.398;9.814;2024-03-06T14:10:31;17.90;86.80
30534;DHT22;73248;52.398;9.814;2024-03-06T14:13:02;18.00;87.40
30534;DHT22;73248;52.398;9.814;2024-03-06T14:15:27;18.10;87.80
30534;DHT22;73248;52.398;9.814;2024-03-06T14:17:53;18.20;86.00
30534;DHT22;73248;52.398;9.814;2024-03-06T14:20:20;18.00;86.30
30534;DHT22;73248;52.398;9.814;2024-03-06T14:22:46;18.00;85.20
30534;DHT22;73248;52.398;9.814;2024-03-06T14:25:12;18.10;85.90
30534;DHT22;73248;52.398;9.814;2024-03-06T14:27:38;17.80;86.10
30534;DHT22;73248;52.398;9.814;2024-03-06T14:30:05;17.60;85.70
30534;DHT22;73248;52.398;9.814;2024-03-06T14:32:35;17.90;85.30
30534;DHT22;73248;52.398;9.814;2024-03-06T14:35:01;18.10;85.10
30534;DHT22;73248;52.398;9.814;2024-03-06T14:37:27;18.20;83.40
30534;DHT22;73248;52.398;9.814;2024-03-06T14:39:53;18.10;84.60
30534;DHT22;73248;52.398;9.814;2024-03-06T14:42:19;18.00;85.00
30534;DHT22;73248;52.398;9.814;2024-03-06T14:44:45;17.80;84.60
30534;DHT22;73248;52.398;9.814;2024-03-06T14:47:12;17.60;85.40
30534;DHT22;73248;52.398;9.814;2024-03-06T14:49:41;17.80;84.40
30534;DHT22;73248;52.398;9.814;2024-03-06T14:52:08;17.60;84.10
30534;DHT22;73248;52.398;9.814;2024-03-06T14:54:34;17.50;83.80
30534;DHT22;73248;52.398;9.814;2024-03-06T14:57:00;17.10;84.10
30534;DHT22;73248;52.398;9.814;2024-03-06T14:59:26;17.10;84.50
30534;DHT22;73248;52.398;9.814;2024-03-06T15:01:52;17.20;84.80
30534;DHT22;73248;52.398;9.814;2024-03-06T15:04:19;17.00;84.10
30534;DHT22;73248;52.398;9.814;2024-03-06T15:06:46;16.70;83.20
30534;DHT22;73248;52.398;9.814;2024-03-06T15:09:12;16.50;83.10
30534;DHT22;73248;52.398;9.814;2024-03-06T15:11:41;16.00;83.30
30534;DHT22;73248;52.398;9.814;2024-03-06T15:14:08;15.70;84.80
30534;DHT22;73248;52.398;9.814;2024-03-06T15:16:34;15.60;85.70
30534;DHT22;73248;52.398;9.814;2024-03-06T15:19:00;15.50;85.90
30534;DHT22;73248;52.398;9.814;2024-03-06T15:21:29;15.30;86.50
30534;DHT22;73248;52.398;9.814;2024-03-06T15:23:55;15.20;86.30
30534;DHT22;73248;52.398;9.814;2024-03-06T15:26:21;15.10;85.90
30534;DHT22;73248;52.398;9.814;2024-03-06T15:28:46;14.70;86.80
30534;DHT22;73248;52.398;9.814;2024-03-06T15:31:12;14.60;86.70
30534;DHT22;73248;52.398;9.814;2024-03-06T15:33:37;14.50;87.10
30534;DHT22;73248;52.398;9.814;2024-03-06T15:36:03;14.10;87.90
30534;DHT22;73248;52.398;9.814;2024-03-06T15:38:29;14.00;87.90
30534;DHT22;73248;52.398;9.814;2024-03-06T15:40:55;14.00;88.30
30534;DHT22;73248;52.398;9.814;2024-03-06T15:43:20;14.00;88.50
30534;DHT22;73248;52.398;9.814;2024-03-06T15:45:46;13.90;88.10
30534;DHT22;73248;52.398;9.814;2024-03-06T15:48:11;13.80;88.00
30534;DHT22;73248;52.398;9.814;2024-03-06T15:50:41;13.70;88.30